Blaydon, United Kingdom
Current Conditions -  °F | °C
As of 12:50 AM on Thursday 18 Dec 2014 (Local Time) from EGNT Reporting Station
Rain Showers Rain Showers  
Wind Chill: 11°   Ceiling: 1500
Heat Index: 11°   Visibility: 6mi
Dew Point:   Wind: 13mph
Humidity: 88%   Direction: 250°WSW
Pressure: 29.53"   Gusts: NA
Location:  54.96°N, 1.71°W
Report Text: EGNT 180050Z 25011KT 9999 -SHRA OVC015 11/09 Q1000
Loading
Personal Weather Stations






























Interactive Weather Map New forecast layout! Learn more

10-Day Weather Forecast

Advertisements
Track Severe Weather on mobile